createdAt,value
2023-02-27T00:01:50.934Z,1.00
2023-02-27T00:04:19.167Z,1.10
2023-02-27T00:07:05.923Z,0.80
2023-02-27T00:09:34.168Z,0.80
2023-02-27T00:12:02.778Z,1.00
2023-02-27T00:14:30.801Z,0.77
2023-02-27T00:16:58.858Z,0.80
2023-02-27T00:19:27.055Z,0.75
2023-02-27T00:21:55.192Z,0.73
2023-02-27T00:24:23.388Z,1.40
2023-02-27T00:26:51.560Z,1.23
2023-02-27T00:29:20.179Z,1.98
2023-02-27T00:31:52.973Z,2.15
2023-02-27T00:34:21.243Z,2.80
2023-02-27T00:36:49.425Z,2.10
2023-02-27T00:39:17.547Z,1.65
2023-02-27T00:41:46.113Z,1.95
2023-02-27T00:44:14.419Z,1.80
2023-02-27T00:46:42.686Z,2.05
2023-02-27T00:49:10.768Z,1.88
2023-02-27T00:51:38.814Z,1.88
2023-02-27T00:54:06.979Z,1.90
2023-02-27T00:56:35.165Z,1.80
2023-02-27T00:59:03.751Z,2.35
2023-02-27T01:01:31.855Z,2.20
2023-02-27T01:04:00.002Z,2.38
2023-02-27T01:06:28.352Z,2.63
2023-02-27T01:08:56.447Z,2.72
2023-02-27T01:11:26.052Z,2.20
2023-02-27T01:13:54.286Z,2.20
2023-02-27T01:16:22.455Z,2.10
2023-02-27T01:18:50.680Z,2.22
2023-02-27T01:21:18.887Z,2.53
2023-02-27T01:23:46.982Z,2.13
2023-02-27T01:26:15.212Z,2.28
2023-02-27T01:28:43.312Z,1.77
2023-02-27T01:31:13.101Z,1.60
2023-02-27T01:33:41.175Z,1.75
2023-02-27T01:36:09.829Z,1.65
2023-02-27T01:38:38.160Z,2.22
2023-02-27T01:41:07.681Z,1.45
2023-02-27T01:43:58.516Z,1.60
2023-02-27T01:46:45.145Z,1.48
2023-02-27T01:49:25.921Z,1.50
2023-02-27T01:52:08.241Z,1.58
2023-02-27T01:54:40.962Z,1.60
2023-02-27T01:57:09.961Z,1.20
2023-02-27T01:59:41.287Z,1.30
2023-02-27T02:02:17.704Z,2.35
2023-02-27T02:04:46.730Z,1.45
2023-02-27T02:07:18.101Z,1.40
2023-02-27T02:09:51.114Z,1.38
2023-02-27T02:12:22.878Z,1.10
2023-02-27T02:14:52.035Z,1.33
2023-02-27T02:17:40.554Z,1.50
2023-02-27T02:20:35.635Z,1.02
2023-02-27T02:23:28.161Z,1.33
2023-02-27T02:26:33.519Z,0.90
2023-02-27T02:29:14.653Z,1.08
2023-02-27T02:32:14.807Z,0.98
2023-02-27T02:35:20.326Z,1.02
2023-02-27T02:38:06.636Z,0.80
2023-02-27T02:41:19.713Z,1.08
2023-02-27T02:44:24.675Z,1.15
2023-02-27T02:47:08.508Z,1.10
2023-02-27T02:50:07.398Z,1.50
2023-02-27T02:52:36.114Z,1.30
2023-02-27T02:55:22.836Z,1.13
2023-02-27T02:58:02.058Z,1.30
2023-02-27T03:00:40.036Z,1.10
2023-02-27T03:03:21.979Z,1.10
2023-02-27T03:06:05.847Z,1.02
2023-02-27T03:08:40.291Z,1.00
2023-02-27T03:11:08.851Z,1.23
2023-02-27T03:13:44.034Z,1.30
2023-02-27T03:16:14.927Z,1.17
2023-02-27T03:18:59.856Z,0.90
2023-02-27T03:21:39.200Z,1.38
2023-02-27T03:24:13.267Z,0.80
2023-02-27T03:26:45.420Z,1.00
2023-02-27T03:29:26.890Z,1.00
2023-02-27T03:32:03.942Z,1.00
2023-02-27T03:34:38.258Z,1.45
2023-02-27T03:37:39.724Z,1.08
2023-02-27T03:43:56.772Z,1.38
2023-02-27T03:46:28.136Z,1.60
2023-02-27T03:48:56.422Z,1.40
2023-02-27T03:51:28.180Z,1.55
2023-02-27T03:54:11.404Z,1.50
2023-02-27T03:56:56.063Z,1.27
2023-02-27T04:02:10.604Z,1.60
2023-02-27T04:04:39.700Z,1.15
2023-02-27T04:07:48.846Z,1.48
2023-02-27T04:10:27.501Z,1.10
2023-02-27T04:13:24.877Z,1.90
2023-02-27T04:16:01.034Z,1.42
2023-02-27T04:18:34.993Z,1.00
2023-02-27T04:21:11.740Z,1.45
2023-02-27T04:23:53.750Z,1.33
2023-02-27T04:26:33.377Z,1.70
2023-02-27T04:29:06.190Z,1.40
2023-02-27T04:31:40.273Z,1.30
2023-02-27T04:34:40.878Z,1.40
2023-02-27T04:37:20.662Z,1.35
2023-02-27T04:40:02.971Z,1.40
2023-02-27T04:42:35.294Z,1.13
2023-02-27T04:45:08.164Z,1.27
2023-02-27T04:47:43.849Z,1.10
2023-02-27T04:50:40.553Z,1.00
2023-02-27T04:53:29.893Z,1.23
2023-02-27T04:56:03.754Z,1.08
2023-02-27T04:58:38.838Z,1.00
2023-02-27T05:01:23.871Z,1.00
2023-02-27T05:04:13.958Z,0.90
2023-02-27T05:06:44.923Z,1.10
2023-02-27T05:09:34.695Z,1.38
2023-02-27T05:12:11.286Z,1.00
2023-02-27T05:15:17.659Z,1.25
2023-02-27T05:17:52.879Z,0.98
2023-02-27T05:20:57.795Z,0.80
2023-02-27T05:23:38.045Z,0.88
2023-02-27T05:26:16.826Z,0.90
2023-02-27T05:28:52.157Z,0.90
2023-02-27T05:31:34.793Z,0.90
2023-02-27T05:34:26.216Z,0.80
2023-02-27T05:37:00.456Z,0.70
2023-02-27T05:39:31.929Z,0.90
2023-02-27T05:42:08.608Z,0.93
2023-02-27T05:44:44.062Z,0.90
2023-02-27T05:47:17.519Z,0.60
2023-02-27T05:49:57.652Z,0.77
2023-02-27T05:52:28.278Z,0.80
2023-02-27T05:55:31.917Z,0.65
2023-02-27T05:58:04.638Z,1.05
2023-02-27T06:00:43.539Z,0.77
2023-02-27T06:03:12.252Z,0.70
2023-02-27T06:08:47.271Z,0.80
2023-02-27T06:11:15.387Z,0.75
2023-02-27T06:13:43.379Z,0.75
2023-02-27T06:16:13.842Z,0.80
2023-02-27T06:18:42.003Z,0.70
2023-02-27T06:21:28.708Z,0.60
2023-02-27T06:23:56.823Z,0.85
2023-02-27T06:26:25.181Z,0.57
2023-02-27T06:28:53.441Z,0.70
2023-02-27T06:34:06.800Z,0.85
2023-02-27T06:36:35.014Z,0.82
2023-02-27T06:39:03.202Z,1.20
2023-02-27T06:41:31.338Z,0.80
2023-02-27T06:43:59.512Z,0.63
2023-02-27T06:46:28.006Z,1.00
2023-02-27T06:48:56.372Z,0.50
2023-02-27T06:51:24.472Z,0.80
2023-02-27T06:53:52.653Z,0.63
2023-02-27T06:56:20.845Z,0.65
2023-02-27T06:58:48.954Z,0.95
2023-02-27T07:01:17.260Z,1.15
2023-02-27T07:03:45.463Z,0.60
2023-02-27T07:06:13.596Z,0.82
2023-02-27T07:09:01.492Z,0.80
2023-02-27T07:11:30.799Z,0.80
2023-02-27T07:13:58.933Z,0.70
2023-02-27T07:16:27.367Z,0.90
2023-02-27T07:18:55.662Z,1.02
2023-02-27T07:21:23.785Z,1.02
2023-02-27T07:23:51.938Z,0.70
2023-02-27T07:26:20.122Z,1.00
2023-02-27T07:29:07.603Z,1.00
2023-02-27T07:31:36.159Z,1.10
2023-02-27T07:34:04.195Z,1.30
2023-02-27T07:36:50.613Z,0.90
2023-02-27T07:39:19.777Z,0.98
2023-02-27T07:41:47.778Z,1.00
2023-02-27T07:44:18.470Z,0.95
2023-02-27T07:46:47.624Z,0.93
2023-02-27T07:49:15.841Z,0.85
2023-02-27T07:51:44.183Z,0.82
2023-02-27T07:54:30.673Z,0.95
2023-02-27T07:56:58.887Z,0.70
2023-02-27T07:59:26.968Z,1.33
2023-02-27T08:01:55.049Z,1.10
2023-02-27T08:04:23.566Z,0.95
2023-02-27T08:06:51.714Z,0.82
2023-02-27T08:09:19.891Z,0.95
2023-02-27T08:11:49.197Z,1.00
2023-02-27T08:14:17.416Z,1.35
2023-02-27T08:16:45.562Z,0.90
2023-02-27T08:19:14.914Z,0.73
2023-02-27T08:21:43.255Z,0.90
2023-02-27T08:24:11.273Z,0.80
2023-02-27T08:26:39.353Z,1.02
2023-02-27T08:29:08.018Z,0.90
2023-02-27T08:31:36.246Z,0.73
2023-02-27T08:34:10.159Z,1.35
2023-02-27T08:36:39.640Z,0.80
2023-02-27T08:39:09.089Z,0.90
2023-02-27T08:41:37.281Z,0.70
2023-02-27T08:44:05.391Z,0.90
2023-02-27T08:46:33.673Z,0.93
2023-02-27T08:49:01.765Z,0.82
2023-02-27T08:51:30.312Z,0.80
2023-02-27T08:53:59.325Z,0.60
2023-02-27T08:56:46.082Z,0.70
2023-02-27T08:59:14.575Z,0.85
2023-02-27T09:01:42.901Z,1.20
2023-02-27T09:04:12.085Z,0.88
2023-02-27T09:06:40.752Z,0.80
2023-02-27T09:09:08.882Z,0.93
2023-02-27T09:11:38.801Z,1.00
2023-02-27T09:14:07.682Z,0.60
2023-02-27T09:16:35.915Z,0.63
2023-02-27T09:19:04.581Z,1.00
2023-02-27T09:21:32.770Z,0.90
2023-02-27T09:24:17.226Z,0.52
2023-02-27T09:26:47.862Z,0.50
2023-02-27T09:29:16.395Z,0.80
2023-02-27T09:32:03.486Z,0.77
2023-02-27T09:34:31.627Z,0.85
2023-02-27T09:37:01.121Z,0.82
2023-02-27T09:39:30.547Z,1.42
2023-02-27T09:42:15.774Z,0.82
2023-02-27T09:45:05.749Z,0.93
2023-02-27T09:47:51.047Z,1.10
2023-02-27T09:50:25.877Z,0.77
2023-02-27T09:52:54.764Z,0.88
2023-02-27T09:55:24.714Z,1.00
2023-02-27T09:58:14.720Z,1.08
2023-02-27T10:01:11.862Z,0.73
2023-02-27T10:03:43.615Z,1.08
2023-02-27T10:06:28.594Z,1.20
2023-02-27T10:09:02.897Z,1.00
2023-02-27T10:12:01.733Z,0.88
2023-02-27T10:14:43.264Z,0.70
2023-02-27T10:17:39.190Z,1.33
2023-02-27T10:20:30.405Z,0.90
2023-02-27T10:23:03.646Z,1.00
2023-02-27T10:25:36.559Z,0.90
2023-02-27T10:28:23.273Z,0.98
2023-02-27T10:30:57.213Z,1.00
2023-02-27T10:33:35.956Z,0.82
2023-02-27T10:36:20.616Z,0.90
2023-02-27T10:38:56.207Z,1.42
2023-02-27T10:41:24.868Z,1.58
2023-02-27T10:43:57.737Z,1.65
2023-02-27T10:46:31.637Z,1.63
2023-02-27T10:49:10.247Z,1.63
2023-02-27T10:51:38.718Z,1.33
2023-02-27T10:54:19.146Z,1.45
2023-02-27T10:56:57.055Z,1.40
2023-02-27T10:59:34.218Z,1.73
2023-02-27T11:02:29.972Z,1.63
2023-02-27T11:05:00.512Z,1.15
2023-02-27T11:07:28.649Z,1.40
2023-02-27T11:10:17.380Z,1.30
2023-02-27T11:13:04.549Z,1.50
2023-02-27T11:15:38.138Z,1.20
2023-02-27T11:18:29.595Z,1.50
2023-02-27T11:21:15.835Z,1.40
2023-02-27T11:23:57.545Z,1.38
2023-02-27T11:26:39.503Z,1.30
2023-02-27T11:29:15.364Z,2.17
2023-02-27T11:31:56.240Z,1.40
2023-02-27T11:34:39.105Z,1.40
2023-02-27T11:37:27.372Z,1.08
2023-02-27T11:40:16.349Z,1.73
2023-02-27T11:42:50.312Z,1.67
2023-02-27T11:46:14.694Z,1.40
2023-02-27T11:48:20.204Z,1.45
2023-02-27T11:54:35.135Z,2.10
2023-02-27T11:57:30.105Z,1.58
2023-02-27T12:00:06.910Z,1.52
2023-02-27T12:03:26.190Z,1.10
2023-02-27T12:06:01.429Z,1.55
2023-02-27T12:08:38.264Z,1.13
2023-02-27T12:11:28.547Z,1.20
2023-02-27T12:14:20.487Z,1.40
2023-02-27T12:17:03.307Z,1.40
2023-02-27T12:19:40.242Z,1.30
2023-02-27T12:22:22.968Z,2.08
2023-02-27T12:24:54.081Z,1.48
2023-02-27T12:27:29.745Z,1.30
2023-02-27T12:30:21.487Z,1.15
2023-02-27T12:33:14.462Z,1.10
2023-02-27T12:35:44.964Z,1.42
2023-02-27T12:38:15.833Z,1.48
2023-02-27T12:40:58.961Z,1.10
2023-02-27T12:43:46.994Z,1.27
2023-02-27T12:46:32.167Z,1.77
2023-02-27T12:49:30.539Z,0.95
2023-02-27T12:55:04.687Z,1.08
2023-02-27T12:57:48.049Z,1.10
2023-02-27T13:03:10.204Z,1.33
2023-02-27T13:06:07.466Z,1.15
2023-02-27T13:08:38.628Z,0.98
2023-02-27T13:11:53.749Z,1.00
2023-02-27T13:14:43.659Z,1.25
2023-02-27T13:17:24.057Z,0.98
2023-02-27T13:20:32.523Z,1.00
2023-02-27T13:23:14.234Z,0.90
2023-02-27T13:25:51.184Z,1.55
2023-02-27T13:28:24.794Z,1.10
2023-02-27T13:31:15.934Z,1.10
2023-02-27T13:34:00.960Z,1.50
2023-02-27T13:37:02.830Z,1.20
2023-02-27T13:39:46.324Z,1.60
2023-02-27T13:42:26.832Z,1.02
2023-02-27T13:44:56.998Z,1.10
2023-02-27T13:47:31.482Z,1.65
2023-02-27T13:50:21.493Z,1.83
2023-02-27T13:52:49.807Z,1.90
2023-02-27T13:55:31.389Z,1.48
2023-02-27T13:58:01.362Z,1.02
2023-02-27T14:00:32.218Z,0.95
2023-02-27T14:03:38.446Z,1.13
2023-02-27T14:06:07.306Z,1.67
2023-02-27T14:08:49.778Z,1.05
2023-02-27T14:11:40.251Z,1.38
2023-02-27T14:14:29.558Z,0.90
2023-02-27T14:16:59.400Z,1.02
2023-02-27T14:19:43.256Z,0.90
2023-02-27T14:22:18.727Z,1.02
2023-02-27T14:25:02.412Z,1.33
2023-02-27T14:27:58.215Z,1.52
2023-02-27T14:30:41.387Z,1.02
2023-02-27T14:33:42.486Z,1.30
2023-02-27T14:39:40.177Z,1.10
2023-02-27T14:42:31.544Z,1.33
2023-02-27T14:45:00.159Z,0.90
2023-02-27T14:47:37.082Z,1.00
2023-02-27T14:50:34.350Z,1.15
2023-02-27T14:53:02.840Z,1.00
2023-02-27T14:55:36.375Z,0.82
2023-02-27T14:58:10.532Z,1.52
2023-02-27T15:00:42.270Z,1.15
2023-02-27T15:03:23.083Z,1.48
2023-02-27T15:05:54.365Z,1.20
2023-02-27T15:08:40.872Z,1.02
2023-02-27T15:11:14.266Z,1.42
2023-02-27T15:13:44.758Z,0.98
2023-02-27T15:16:24.917Z,1.02
2023-02-27T15:18:56.703Z,1.85
2023-02-27T15:21:27.155Z,1.30
2023-02-27T15:23:56.388Z,1.75
2023-02-27T15:26:26.083Z,0.95
2023-02-27T15:28:54.395Z,1.20
2023-02-27T15:31:27.484Z,1.30
2023-02-27T15:33:57.223Z,1.75
2023-02-27T15:36:29.673Z,1.40
2023-02-27T15:39:29.046Z,1.00
2023-02-27T15:42:01.431Z,1.13
2023-02-27T15:44:44.806Z,1.77
2023-02-27T15:47:18.979Z,1.65
2023-02-27T15:49:49.046Z,3.17
2023-02-27T15:52:25.732Z,2.35
2023-02-27T15:55:00.992Z,2.00
2023-02-27T15:57:30.936Z,1.30
2023-02-27T16:00:00.898Z,1.60
2023-02-27T16:02:41.695Z,1.00
2023-02-27T16:05:41.508Z,1.85
2023-02-27T16:08:18.456Z,1.63
2023-02-27T16:10:47.629Z,2.00
2023-02-27T16:13:41.181Z,1.30
2023-02-27T16:16:35.561Z,0.98
2023-02-27T16:19:29.678Z,1.63
2023-02-27T16:22:16.814Z,1.30
2023-02-27T16:24:45.463Z,1.35
2023-02-27T16:27:28.519Z,2.08
2023-02-27T16:30:02.913Z,1.45
2023-02-27T16:32:42.391Z,1.20
2023-02-27T16:35:23.007Z,1.55
2023-02-27T16:37:51.692Z,1.65
2023-02-27T16:40:25.003Z,1.20
2023-02-27T16:42:54.095Z,1.27
2023-02-27T16:45:27.744Z,1.10
2023-02-27T16:47:58.714Z,1.10
2023-02-27T16:50:46.192Z,1.20
2023-02-27T16:53:14.219Z,0.88
2023-02-27T16:55:44.096Z,1.10
2023-02-27T16:58:16.043Z,1.17
2023-02-27T17:00:44.398Z,1.30
2023-02-27T17:03:12.583Z,1.48
2023-02-27T17:05:41.712Z,1.10
2023-02-27T17:08:11.554Z,1.30
2023-02-27T17:10:39.753Z,1.10
2023-02-27T17:13:07.785Z,1.30
2023-02-27T17:15:35.946Z,2.00
2023-02-27T17:18:04.286Z,1.25
2023-02-27T17:20:32.352Z,1.80
2023-02-27T17:23:00.397Z,1.40
2023-02-27T17:25:28.672Z,1.67
2023-02-27T17:27:57.624Z,1.80
2023-02-27T17:30:26.041Z,1.75
2023-02-27T17:32:54.169Z,1.90
2023-02-27T17:35:22.398Z,2.10
2023-02-27T17:37:50.626Z,2.03
2023-02-27T17:40:18.753Z,0.95
2023-02-27T17:42:47.176Z,1.38
2023-02-27T17:45:15.500Z,1.30
2023-02-27T17:48:02.452Z,1.27
2023-02-27T17:50:32.440Z,1.20
2023-02-27T17:53:19.221Z,1.50
2023-02-27T17:55:47.346Z,1.13
2023-02-27T17:58:17.266Z,1.60
2023-02-27T18:01:09.444Z,1.70
2023-02-27T18:03:56.101Z,1.33
2023-02-27T18:06:25.313Z,1.00
2023-02-27T18:08:53.593Z,1.33
2023-02-27T18:11:22.659Z,1.40
2023-02-27T18:13:50.878Z,1.10
2023-02-27T18:16:22.229Z,1.63
2023-02-27T18:18:50.812Z,1.30
2023-02-27T18:21:21.232Z,1.30
2023-02-27T18:23:50.939Z,1.60
2023-02-27T18:26:29.454Z,1.40
2023-02-27T18:29:00.626Z,1.25
2023-02-27T18:31:31.678Z,1.23
2023-02-27T18:34:19.878Z,1.40
2023-02-27T18:36:48.298Z,1.50
2023-02-27T18:39:16.324Z,1.58
2023-02-27T18:41:44.415Z,1.30
2023-02-27T18:44:12.461Z,1.55
2023-02-27T18:46:40.695Z,2.03
2023-02-27T18:49:09.359Z,2.75
2023-02-27T18:54:23.098Z,3.17
2023-02-27T18:56:52.197Z,1.85
2023-02-27T18:59:20.147Z,1.98
2023-02-27T19:01:48.296Z,2.35
2023-02-27T19:04:16.351Z,1.90
2023-02-27T19:06:44.606Z,2.38
2023-02-27T19:09:33.055Z,2.38
2023-02-27T19:12:01.558Z,1.75
2023-02-27T19:14:29.747Z,2.08
2023-02-27T19:17:00.593Z,2.40
2023-02-27T19:19:47.528Z,2.25
2023-02-27T19:22:15.669Z,1.50
2023-02-27T19:25:02.241Z,1.80
2023-02-27T19:27:30.379Z,1.30
2023-02-27T19:30:01.650Z,1.52
2023-02-27T19:32:29.686Z,1.98
2023-02-27T19:35:16.592Z,1.77
2023-02-27T19:37:48.332Z,1.58
2023-02-27T19:42:44.984Z,1.17
2023-02-27T19:45:13.192Z,1.13
2023-02-27T19:47:41.351Z,1.27
2023-02-27T19:50:10.382Z,1.63
2023-02-27T19:52:38.597Z,1.70
2023-02-27T19:55:07.027Z,1.63
2023-02-27T20:00:23.012Z,1.80
2023-02-27T20:02:51.061Z,1.50
2023-02-27T20:05:19.496Z,1.50
2023-02-27T20:07:48.682Z,1.23
2023-02-27T20:10:17.010Z,1.45
2023-02-27T20:12:45.088Z,1.45
2023-02-27T20:15:13.436Z,1.13
2023-02-27T20:17:42.328Z,1.25
2023-02-27T20:20:11.199Z,1.15
2023-02-27T20:22:43.644Z,0.88
2023-02-27T20:25:12.666Z,1.10
2023-02-27T20:27:40.846Z,2.42
2023-02-27T20:30:09.670Z,1.35
2023-02-27T20:32:37.882Z,0.80
2023-02-27T20:35:06.805Z,1.63
2023-02-27T20:43:24.733Z,1.25
2023-02-27T20:45:52.763Z,1.30
2023-02-27T20:48:20.939Z,1.10
2023-02-27T20:50:49.228Z,1.42
2023-02-27T20:56:23.376Z,1.45
2023-02-27T20:58:51.744Z,1.70
2023-02-27T21:01:20.302Z,2.50
2023-02-27T21:03:51.241Z,4.20
2023-02-27T21:06:19.856Z,5.20
2023-02-27T21:09:07.008Z,5.18
2023-02-27T21:11:35.178Z,6.97
2023-02-27T21:14:07.441Z,5.60
2023-02-27T21:16:37.036Z,5.93
2023-02-27T21:19:05.309Z,7.20
2023-02-27T21:21:35.336Z,6.85
2023-02-27T21:24:03.682Z,4.80
2023-02-27T21:26:38.405Z,5.43
2023-02-27T21:29:16.047Z,3.83
2023-02-27T21:31:47.255Z,2.67
2023-02-27T21:34:26.564Z,2.58
2023-02-27T21:36:55.034Z,2.42
2023-02-27T21:39:26.165Z,1.92
2023-02-27T21:41:54.895Z,2.47
2023-02-27T21:44:27.237Z,5.25
2023-02-27T21:46:55.741Z,5.07
2023-02-27T21:49:29.010Z,5.35
2023-02-27T21:51:57.342Z,4.93
2023-02-27T21:54:25.691Z,4.35
2023-02-27T21:56:53.742Z,3.95
2023-02-27T21:59:22.030Z,3.67
2023-02-27T22:01:50.240Z,3.53
2023-02-27T22:04:19.997Z,3.80
2023-02-27T22:06:49.528Z,3.70
2023-02-27T22:09:18.128Z,3.55
2023-02-27T22:11:46.831Z,3.13
2023-02-27T22:14:15.479Z,2.42
2023-02-27T22:16:43.711Z,2.40
2023-02-27T22:19:20.153Z,2.60
2023-02-27T22:21:48.674Z,2.75
2023-02-27T22:24:16.871Z,2.17
2023-02-27T22:26:45.965Z,2.38
2023-02-27T22:29:14.319Z,2.33
2023-02-27T22:34:27.782Z,2.20
2023-02-27T22:36:55.987Z,2.30
2023-02-27T22:39:24.205Z,2.25
2023-02-27T22:41:52.638Z,1.83
2023-02-27T22:44:20.823Z,2.05
2023-02-27T22:46:50.413Z,1.50
2023-02-27T22:52:25.889Z,1.85
2023-02-27T22:54:54.394Z,1.70
2023-02-27T22:57:22.496Z,1.48
2023-02-27T22:59:50.754Z,1.52
2023-02-27T23:02:18.977Z,1.48
2023-02-27T23:04:47.021Z,1.73
2023-02-27T23:07:15.059Z,1.50
2023-02-27T23:09:44.131Z,1.38
2023-02-27T23:12:12.250Z,1.60
2023-02-27T23:14:40.380Z,1.60
2023-02-27T23:17:08.463Z,1.30
2023-02-27T23:19:36.891Z,1.88
2023-02-27T23:22:23.212Z,1.65
2023-02-27T23:24:51.347Z,1.88
2023-02-27T23:27:25.749Z,1.88
2023-02-27T23:29:54.419Z,1.42
2023-02-27T23:32:22.739Z,1.80
2023-02-27T23:34:50.861Z,1.52
2023-02-27T23:37:18.955Z,1.60
2023-02-27T23:39:47.611Z,1.42
2023-02-27T23:42:33.980Z,1.58
2023-02-27T23:45:04.758Z,2.20
2023-02-27T23:47:42.729Z,1.80
2023-02-27T23:50:11.895Z,1.98
2023-02-27T23:52:39.986Z,1.77
2023-02-27T23:55:08.518Z,1.48
2023-02-27T23:57:36.850Z,1.38
